Time;durP1;ratioP1;P1;durP2;ratioP2;P2;SDS_P1;SDS_P2;PMS_P1;PMS_P2;Temp;Humidity;BMP_temperature;BMP_pressure;BME280_temperature;BME280_humidity;BME280_pressure;Samples;Min_cycle;Max_cycle;Signal;HPM_P1;HPM_P2
2024/02/29 00:01:39;;;;;;;;;;;7.50;99.90;;;;;;4998384;28;19906;-80
2024/02/29 00:04:04;;;;;;;;;;;8.40;99.90;;;;;;4980639;28;19905;-79
2024/02/29 00:06:30;;;;;;;;;;;7.60;99.90;;;;;;4977798;28;19956;-79
2024/02/29 00:08:56;;;;;;;;;;;7.50;99.90;;;;;;4979614;28;19929;-78
2024/02/29 00:11:21;;;;;;;;;;;7.60;99.90;;;;;;4975551;28;19977;-79
2024/02/29 00:13:47;;;;;;;;;;;7.60;99.90;;;;;;4974456;28;19906;-78
2024/02/29 00:16:13;;;;;;;;;;;7.50;99.90;;;;;;4975409;28;19913;-79
2024/02/29 00:18:39;;;;;;;;;;;7.70;99.90;;;;;;4994921;28;19966;-79
2024/02/29 00:21:04;;;;;;;;;;;7.70;99.90;;;;;;4977151;28;19906;-79
2024/02/29 00:23:30;;;;;;;;;;;7.60;99.90;;;;;;4974383;28;19914;-79
2024/02/29 00:25:55;;;;;;;;;;;7.60;99.90;;;;;;4983637;28;19945;-78
2024/02/29 00:28:21;;;;;;;;;;;7.50;99.90;;;;;;4978954;28;19918;-79
2024/02/29 00:30:47;;;;;;;;;;;7.90;99.90;;;;;;5000189;28;19930;-80
2024/02/29 00:33:13;;;;;;;;;;;7.40;99.90;;;;;;4993030;28;19941;-78
2024/02/29 00:35:38;;;;;;;;;;;7.30;99.90;;;;;;4973841;28;19906;-79
2024/02/29 00:38:04;;;;;;;;;;;7.30;99.90;;;;;;4975354;28;19910;-79
2024/02/29 00:40:29;;;;;;;;;;;7.20;99.90;;;;;;4994835;28;19906;-79
2024/02/29 00:42:55;;;;;;;;;;;7.20;99.90;;;;;;4997556;28;20367;-79
2024/02/29 00:45:21;;;;;;;;;;;7.20;99.90;;;;;;4973418;28;19922;-79
2024/02/29 00:47:46;;;;;;;;;;;7.20;99.90;;;;;;4976153;28;19890;-79
2024/02/29 00:50:12;;;;;;;;;;;7.30;99.90;;;;;;4978290;28;19897;-78
2024/02/29 00:52:38;;;;;;;;;;;7.50;99.90;;;;;;4978892;28;19907;-79
2024/02/29 00:55:04;;;;;;;;;;;7.40;99.90;;;;;;4971256;28;19906;-78
2024/02/29 00:57:29;;;;;;;;;;;7.00;99.90;;;;;;4971006;28;19906;-79
2024/02/29 00:59:55;;;;;;;;;;;7.40;99.90;;;;;;4971493;28;19929;-79
2024/02/29 01:02:20;;;;;;;;;;;6.90;99.90;;;;;;4988124;28;20422;-79
2024/02/29 01:04:46;;;;;;;;;;;7.40;99.90;;;;;;4988507;28;19918;-79
2024/02/29 01:07:11;;;;;;;;;;;7.40;99.90;;;;;;4987910;28;19933;-78
2024/02/29 01:09:37;;;;;;;;;;;7.30;99.90;;;;;;4970279;28;19941;-79
2024/02/29 01:12:03;;;;;;;;;;;7.40;99.90;;;;;;4972150;28;19910;-78
2024/02/29 01:14:28;;;;;;;;;;;7.30;99.90;;;;;;4970554;28;19914;-78
2024/02/29 01:16:56;;;;;;;;;;;6.80;99.90;;;;;;4971416;28;19912;-78
2024/02/29 01:19:21;;;;;;;;;;;7.00;99.90;;;;;;4970414;28;19964;-79
2024/02/29 01:21:47;;;;;;;;;;;7.20;99.90;;;;;;4988790;28;19906;-80
2024/02/29 01:24:12;;;;;;;;;;;7.20;99.90;;;;;;4971157;28;19972;-79
2024/02/29 01:26:38;;;;;;;;;;;7.20;99.90;;;;;;4971230;28;19965;-78
2024/02/29 01:29:04;;;;;;;;;;;7.20;99.90;;;;;;4972624;28;19960;-79
2024/02/29 01:31:29;;;;;;;;;;;7.20;99.90;;;;;;4971371;28;19913;-79
2024/02/29 01:33:55;;;;;;;;;;;7.30;99.90;;;;;;4993272;28;19890;-79
2024/02/29 01:36:21;;;;;;;;;;;7.30;99.90;;;;;;4977293;28;19914;-79
2024/02/29 01:38:46;;;;;;;;;;;8.00;99.90;;;;;;4974003;28;19910;-79
2024/02/29 01:41:12;;;;;;;;;;;7.30;99.90;;;;;;4977268;28;19910;-78
2024/02/29 01:43:38;;;;;;;;;;;8.10;99.90;;;;;;4975827;28;19913;-78
2024/02/29 01:46:09;;;;;;;;;;;7.40;99.90;;;;;;4989181;28;19934;-79
2024/02/29 01:48:35;;;;;;;;;;;7.10;99.90;;;;;;4989045;28;19906;-79
2024/02/29 01:51:00;;;;;;;;;;;7.50;99.90;;;;;;4973437;28;19914;-79
2024/02/29 01:53:26;;;;;;;;;;;7.50;99.90;;;;;;4972938;28;19906;-79
2024/02/29 01:55:51;;;;;;;;;;;7.50;99.90;;;;;;4989911;28;20310;-79
2024/02/29 01:58:17;;;;;;;;;;;7.40;99.90;;;;;;4992388;28;20011;-78
2024/02/29 02:00:43;;;;;;;;;;;7.70;99.90;;;;;;4991367;28;19977;-79
2024/02/29 02:03:09;;;;;;;;;;;7.50;99.90;;;;;;4972546;28;19989;-79
2024/02/29 02:05:35;;;;;;;;;;;7.80;99.90;;;;;;4972682;28;20371;-79
2024/02/29 02:08:03;;;;;;;;;;;7.80;99.90;;;;;;4973086;28;19910;-78
2024/02/29 02:10:29;;;;;;;;;;;7.90;99.90;;;;;;4971977;28;19966;-79
2024/02/29 02:12:55;;;;;;;;;;;8.10;99.90;;;;;;4985640;28;19914;-79
2024/02/29 02:15:20;;;;;;;;;;;8.30;99.90;;;;;;4970289;28;20110;-78
2024/02/29 02:17:47;;;;;;;;;;;8.10;99.90;;;;;;4967795;28;19934;-78
2024/02/29 02:20:16;;;;;;;;;;;8.10;99.90;;;;;;4987025;28;19913;-79
2024/02/29 02:22:42;;;;;;;;;;;8.00;99.90;;;;;;4986644;28;19921;-79
2024/02/29 02:25:07;;;;;;;;;;;7.80;99.90;;;;;;4987267;28;19918;-79
2024/02/29 02:27:33;;;;;;;;;;;7.70;99.90;;;;;;4966652;28;19933;-77
2024/02/29 02:29:59;;;;;;;;;;;7.60;99.90;;;;;;4956306;28;19910;-78
2024/02/29 02:32:24;;;;;;;;;;;7.50;99.90;;;;;;4962839;28;19922;-79
2024/02/29 02:34:50;;;;;;;;;;;7.50;99.90;;;;;;4969112;28;19969;-79
2024/02/29 02:37:15;;;;;;;;;;;7.60;99.90;;;;;;4968043;28;19906;-79
2024/02/29 02:39:41;;;;;;;;;;;7.70;99.90;;;;;;4970217;28;19934;-78
2024/02/29 02:42:06;;;;;;;;;;;7.50;99.90;;;;;;4971990;28;19944;-79
2024/02/29 02:44:32;;;;;;;;;;;7.50;99.90;;;;;;4970946;28;19933;-79
2024/02/29 02:46:57;;;;;;;;;;;7.40;99.90;;;;;;4971673;28;20000;-79
2024/02/29 02:49:23;;;;;;;;;;;7.30;99.90;;;;;;4971048;28;19906;-78
2024/02/29 02:51:48;;;;;;;;;;;7.20;99.90;;;;;;4971922;28;19906;-78
2024/02/29 02:54:14;;;;;;;;;;;7.20;99.90;;;;;;4971538;28;20326;-77
2024/02/29 02:56:39;;;;;;;;;;;7.10;99.90;;;;;;4971149;28;19905;-78
2024/02/29 02:59:05;;;;;;;;;;;7.10;99.90;;;;;;4972330;28;19907;-78
2024/02/29 03:01:30;;;;;;;;;;;7.00;99.90;;;;;;4972990;28;20094;-78
2024/02/29 03:03:56;;;;;;;;;;;7.00;99.90;;;;;;4990484;28;20361;-78
2024/02/29 03:06:21;;;;;;;;;;;7.00;99.90;;;;;;4970655;28;19914;-78
2024/02/29 03:08:47;;;;;;;;;;;6.90;99.90;;;;;;4969999;28;19906;-78
2024/02/29 03:11:12;;;;;;;;;;;6.90;99.90;;;;;;4970782;28;19913;-78
2024/02/29 03:13:38;;;;;;;;;;;7.00;99.90;;;;;;4996898;28;19906;-77
2024/02/29 03:16:04;;;;;;;;;;;7.10;99.90;;;;;;4978998;28;19913;-78
2024/02/29 03:18:29;;;;;;;;;;;7.20;99.90;;;;;;4970296;28;19910;-78
2024/02/29 03:20:55;;;;;;;;;;;7.20;99.90;;;;;;4971351;28;19945;-78
2024/02/29 03:23:20;;;;;;;;;;;7.40;99.90;;;;;;4987932;28;19921;-78
2024/02/29 03:25:46;;;;;;;;;;;7.40;99.90;;;;;;4973337;28;19907;-78
2024/02/29 03:28:12;;;;;;;;;;;7.40;99.90;;;;;;4976516;28;19914;-78
2024/02/29 03:30:37;;;;;;;;;;;7.50;99.90;;;;;;4977451;28;19890;-78
2024/02/29 03:33:03;;;;;;;;;;;7.70;99.90;;;;;;4976375;28;19989;-79
2024/02/29 03:35:28;;;;;;;;;;;7.30;99.90;;;;;;4976296;28;19974;-79
2024/02/29 03:37:54;;;;;;;;;;;7.20;99.90;;;;;;4976521;28;20020;-79
2024/02/29 03:40:19;;;;;;;;;;;7.10;99.90;;;;;;4976259;28;19906;-78
2024/02/29 03:42:45;;;;;;;;;;;7.10;99.90;;;;;;4976394;28;19910;-79
2024/02/29 03:45:10;;;;;;;;;;;7.10;99.90;;;;;;4976920;28;20021;-79
2024/02/29 03:47:36;;;;;;;;;;;7.00;99.90;;;;;;4976985;28;19956;-78
2024/02/29 03:50:01;;;;;;;;;;;6.90;99.90;;;;;;4993647;28;19998;-78
2024/02/29 03:52:27;;;;;;;;;;;6.90;99.90;;;;;;4993375;28;19913;-78
2024/02/29 03:54:52;;;;;;;;;;;6.80;99.90;;;;;;4992129;28;19906;-79
2024/02/29 03:57:18;;;;;;;;;;;6.80;99.90;;;;;;4977367;28;19912;-79
2024/02/29 03:59:47;;;;;;;;;;;6.80;99.90;;;;;;4976562;28;19906;-78
2024/02/29 04:02:12;;;;;;;;;;;6.90;99.90;;;;;;4979349;28;19957;-79
2024/02/29 04:04:39;;;;;;;;;;;6.90;99.90;;;;;;5000115;28;19902;-78
2024/02/29 04:07:05;;;;;;;;;;;7.00;99.90;;;;;;4976608;28;19906;-79
2024/02/29 04:09:30;;;;;;;;;;;7.00;99.90;;;;;;4998255;28;19940;-79
2024/02/29 04:11:56;;;;;;;;;;;7.10;99.90;;;;;;4983329;28;19906;-79
2024/02/29 04:14:21;;;;;;;;;;;7.00;99.90;;;;;;4977201;28;19917;-78
2024/02/29 04:16:47;;;;;;;;;;;7.10;99.90;;;;;;4974542;28;19929;-79
2024/02/29 04:19:12;;;;;;;;;;;7.20;99.90;;;;;;4992954;28;19932;-79
2024/02/29 04:21:42;;;;;;;;;;;7.10;99.90;;;;;;4992558;28;19906;-79
2024/02/29 04:24:07;;;;;;;;;;;7.00;99.90;;;;;;4993603;28;20492;-79
2024/02/29 04:26:33;;;;;;;;;;;7.00;99.90;;;;;;4992849;28;20009;-79
2024/02/29 04:28:58;;;;;;;;;;;6.90;99.90;;;;;;4976049;28;19918;-80
2024/02/29 04:31:24;;;;;;;;;;;6.80;99.90;;;;;;4975012;28;19910;-77
2024/02/29 04:33:49;;;;;;;;;;;6.80;99.90;;;;;;4992936;28;19993;-79
2024/02/29 04:36:16;;;;;;;;;;;6.80;99.90;;;;;;4975259;28;19906;-79
2024/02/29 04:38:41;;;;;;;;;;;6.70;99.90;;;;;;4991870;28;19910;-79
2024/02/29 04:41:08;;;;;;;;;;;6.80;99.90;;;;;;4974193;28;19917;-79
2024/02/29 04:43:34;;;;;;;;;;;6.80;99.90;;;;;;4974468;28;20403;-78
2024/02/29 04:46:00;;;;;;;;;;;6.80;99.90;;;;;;4991682;28;19961;-78
2024/02/29 04:48:26;;;;;;;;;;;6.80;99.90;;;;;;4991977;28;19959;-79
2024/02/29 04:50:51;;;;;;;;;;;6.80;99.90;;;;;;4974656;28;19937;-79
2024/02/29 04:53:17;;;;;;;;;;;6.80;99.90;;;;;;4991287;28;20298;-78
2024/02/29 04:55:43;;;;;;;;;;;6.70;99.90;;;;;;4991792;28;19910;-79
2024/02/29 04:58:08;;;;;;;;;;;6.70;99.90;;;;;;4974986;28;20550;-79
2024/02/29 05:00:34;;;;;;;;;;;7.00;99.90;;;;;;4975030;28;19917;-77
2024/02/29 05:03:00;;;;;;;;;;;6.40;99.90;;;;;;4992234;28;19922;-79
2024/02/29 05:05:27;;;;;;;;;;;6.90;99.90;;;;;;4974395;28;20302;-79
2024/02/29 05:07:53;;;;;;;;;;;7.50;99.90;;;;;;4992378;28;19906;-79
2024/02/29 05:10:19;;;;;;;;;;;7.10;99.90;;;;;;4991027;28;19913;-79
2024/02/29 05:12:49;;;;;;;;;;;7.30;99.90;;;;;;4991382;28;19906;-79
2024/02/29 05:15:17;;;;;;;;;;;7.40;99.90;;;;;;4975144;28;19912;-78
2024/02/29 05:17:42;;;;;;;;;;;7.50;99.90;;;;;;4991114;28;19914;-79
2024/02/29 05:20:08;;;;;;;;;;;7.60;99.90;;;;;;4975247;28;19906;-79
2024/02/29 05:22:34;;;;;;;;;;;8.00;99.90;;;;;;4991804;28;19953;-79
2024/02/29 05:24:59;;;;;;;;;;;7.70;99.90;;;;;;4971747;28;19921;-79
2024/02/29 05:27:29;;;;;;;;;;;7.70;99.90;;;;;;4990784;28;19913;-78
2024/02/29 05:29:56;;;;;;;;;;;7.80;99.90;;;;;;4971814;28;19906;-79
2024/02/29 05:32:22;;;;;;;;;;;7.80;99.90;;;;;;4974788;28;19910;-79
2024/02/29 05:34:47;;;;;;;;;;;7.90;99.90;;;;;;4975026;28;19913;-79
2024/02/29 05:37:13;;;;;;;;;;;7.90;99.90;;;;;;4975183;28;19910;-79
2024/02/29 05:39:38;;;;;;;;;;;7.90;99.90;;;;;;4992785;28;19913;-78
2024/02/29 05:42:04;;;;;;;;;;;8.20;99.90;;;;;;4991996;28;19913;-79
2024/02/29 05:44:30;;;;;;;;;;;8.10;99.90;;;;;;4975789;28;19910;-79
2024/02/29 05:46:57;;;;;;;;;;;8.20;99.90;;;;;;4990982;28;19961;-78
2024/02/29 05:49:22;;;;;;;;;;;7.70;99.90;;;;;;4990708;28;19910;-79
2024/02/29 05:51:48;;;;;;;;;;;8.40;99.90;;;;;;4991265;28;19914;-78
2024/02/29 05:54:13;;;;;;;;;;;8.60;99.90;;;;;;4973358;28;20294;-79
2024/02/29 05:56:39;;;;;;;;;;;8.80;99.90;;;;;;4979533;28;19906;-78
2024/02/29 05:59:05;;;;;;;;;;;8.80;99.90;;;;;;4991380;28;19943;-79
2024/02/29 06:01:31;;;;;;;;;;;9.10;99.90;;;;;;4975046;28;20093;-79
2024/02/29 06:03:56;;;;;;;;;;;9.30;99.90;;;;;;4973573;28;19924;-79
2024/02/29 06:06:22;;;;;;;;;;;9.30;99.90;;;;;;4990828;28;19906;-78
2024/02/29 06:08:48;;;;;;;;;;;9.40;99.90;;;;;;4989548;28;20402;-79
2024/02/29 06:11:14;;;;;;;;;;;9.50;99.90;;;;;;4987805;28;19913;-79
2024/02/29 06:13:43;;;;;;;;;;;9.60;99.90;;;;;;4988930;28;19997;-78
2024/02/29 06:16:11;;;;;;;;;;;9.70;99.90;;;;;;4989944;28;19906;-79
2024/02/29 06:18:36;;;;;;;;;;;9.70;99.90;;;;;;4973569;28;19913;-81
2024/02/29 06:21:03;;;;;;;;;;;9.70;99.90;;;;;;4974769;28;19941;-79
2024/02/29 06:23:29;;;;;;;;;;;9.70;99.90;;;;;;4991115;28;19973;-79
2024/02/29 06:25:55;;;;;;;;;;;9.90;99.90;;;;;;4975164;28;19930;-79
2024/02/29 06:28:20;;;;;;;;;;;10.00;99.90;;;;;;4989414;28;19906;-79
2024/02/29 06:30:46;;;;;;;;;;;10.20;99.90;;;;;;4990741;28;19909;-79
2024/02/29 06:33:11;;;;;;;;;;;10.40;99.90;;;;;;4972527;28;19906;-78
2024/02/29 06:35:37;;;;;;;;;;;10.80;99.90;;;;;;4972985;28;19982;-79
2024/02/29 06:38:03;;;;;;;;;;;11.20;99.90;;;;;;4974806;28;19913;-78
2024/02/29 06:40:28;;;;;;;;;;;11.60;99.90;;;;;;4971375;28;19907;-79
2024/02/29 06:42:54;;;;;;;;;;;11.80;99.90;;;;;;4990381;28;19909;-79
2024/02/29 06:45:19;;;;;;;;;;;12.20;99.90;;;;;;4990775;28;19909;-78
2024/02/29 06:47:45;;;;;;;;;;;12.50;99.90;;;;;;4974020;28;19929;-78
2024/02/29 06:50:11;;;;;;;;;;;12.80;99.90;;;;;;4989139;28;20381;-79
2024/02/29 06:52:37;;;;;;;;;;;13.10;99.30;;;;;;4976030;28;19890;-78
2024/02/29 06:55:09;;;;;;;;;;;13.10;99.00;;;;;;4990122;28;19956;-78
2024/02/29 06:57:35;;;;;;;;;;;13.70;98.30;;;;;;4974141;28;19906;-79
2024/02/29 07:00:01;;;;;;;;;;;14.00;96.20;;;;;;4991852;28;19913;-79
2024/02/29 07:02:26;;;;;;;;;;;14.20;93.50;;;;;;4974411;28;19925;-79
2024/02/29 07:04:52;;;;;;;;;;;14.50;91.50;;;;;;4975381;28;19930;-79
2024/02/29 07:07:18;;;;;;;;;;;14.80;88.90;;;;;;4990014;28;19890;-79
2024/02/29 07:09:43;;;;;;;;;;;15.20;86.40;;;;;;4977416;28;19906;-80
2024/02/29 07:12:09;;;;;;;;;;;15.60;85.70;;;;;;4985768;28;19970;-81
2024/02/29 07:14:34;;;;;;;;;;;15.90;81.20;;;;;;4956213;28;20260;-85
2024/02/29 07:17:00;;;;;;;;;;;16.20;78.90;;;;;;4954407;28;19929;-84
2024/02/29 07:19:26;;;;;;;;;;;16.70;73.90;;;;;;4959927;28;19917;-88
2024/02/29 07:21:52;;;;;;;;;;;16.90;73.70;;;;;;4960525;28;20366;-81
2024/02/29 07:24:18;;;;;;;;;;;17.10;72.90;;;;;;4971241;28;19945;-86
2024/02/29 07:26:44;;;;;;;;;;;17.50;68.70;;;;;;4956366;28;19999;-87
2024/02/29 07:29:09;;;;;;;;;;;17.60;66.90;;;;;;4958022;28;19910;-87
2024/02/29 07:31:36;;;;;;;;;;;17.90;66.20;;;;;;4957436;28;19906;-84
2024/02/29 07:34:02;;;;;;;;;;;18.00;66.20;;;;;;4957443;28;19914;-84
2024/02/29 07:36:27;;;;;;;;;;;18.40;63.50;;;;;;4957196;28;20405;-86
2024/02/29 07:38:53;;;;;;;;;;;18.60;61.70;;;;;;4974618;28;19910;-86
2024/02/29 07:41:18;;;;;;;;;;;18.70;60.80;;;;;;4974473;28;19913;-84
2024/02/29 07:43:44;;;;;;;;;;;18.80;60.20;;;;;;4957015;28;19938;-85
2024/02/29 07:46:10;;;;;;;;;;;18.90;59.70;;;;;;4956898;28;19906;-83
2024/02/29 07:48:35;;;;;;;;;;;19.00;58.90;;;;;;4957031;28;19994;-87
2024/02/29 07:51:01;;;;;;;;;;;18.80;59.00;;;;;;4957012;28;20312;-85
2024/02/29 07:53:26;;;;;;;;;;;18.70;58.60;;;;;;4957158;28;19910;-87
2024/02/29 07:55:52;;;;;;;;;;;18.50;59.30;;;;;;4957228;28;20370;-85
2024/02/29 07:58:18;;;;;;;;;;;18.20;59.60;;;;;;4957303;28;20499;-85
2024/02/29 08:00:47;;;;;;;;;;;17.90;60.40;;;;;;4986483;28;20469;-79
2024/02/29 08:03:15;;;;;;;;;;;17.60;60.70;;;;;;4990199;28;19918;-79
2024/02/29 08:05:40;;;;;;;;;;;17.20;61.70;;;;;;4980018;28;19917;-79
2024/02/29 08:08:07;;;;;;;;;;;17.20;62.00;;;;;;4997562;28;19894;-79
2024/02/29 08:10:33;;;;;;;;;;;16.70;63.30;;;;;;4997269;28;19914;-79
2024/02/29 08:12:58;;;;;;;;;;;16.40;65.20;;;;;;4998621;28;19961;-79
2024/02/29 08:15:26;;;;;;;;;;;16.00;66.30;;;;;;4978262;28;19906;-79
2024/02/29 08:17:51;;;;;;;;;;;15.70;67.70;;;;;;4978846;28;20117;-79
2024/02/29 08:20:20;;;;;;;;;;;15.60;68.20;;;;;;4982748;28;19906;-77
2024/02/29 08:22:46;;;;;;;;;;;15.50;68.30;;;;;;4981900;28;19910;-77
2024/02/29 08:25:12;;;;;;;;;;;15.30;69.20;;;;;;4976876;28;19981;-77
2024/02/29 08:27:37;;;;;;;;;;;14.90;71.20;;;;;;4980330;28;19921;-77
2024/02/29 08:30:03;;;;;;;;;;;14.80;72.00;;;;;;4981710;28;19897;-77
2024/02/29 08:32:29;;;;;;;;;;;14.80;72.10;;;;;;4997222;28;19890;-76
2024/02/29 08:34:56;;;;;;;;;;;14.80;72.50;;;;;;4978280;28;19916;-77
2024/02/29 08:37:22;;;;;;;;;;;14.70;73.50;;;;;;4982342;28;19906;-77
2024/02/29 08:39:47;;;;;;;;;;;14.60;74.00;;;;;;4978978;28;19891;-78
2024/02/29 08:42:13;;;;;;;;;;;14.60;73.90;;;;;;4979749;28;20307;-78
2024/02/29 08:44:42;;;;;;;;;;;14.60;74.00;;;;;;4979689;28;19909;-77
2024/02/29 08:47:08;;;;;;;;;;;14.50;74.90;;;;;;4979722;28;19910;-77
2024/02/29 08:49:33;;;;;;;;;;;14.60;75.30;;;;;;4995436;28;19968;-77
2024/02/29 08:51:59;;;;;;;;;;;14.70;74.60;;;;;;4976414;28;19922;-78
2024/02/29 08:54:24;;;;;;;;;;;14.70;74.60;;;;;;4979255;28;19890;-77
2024/02/29 08:56:50;;;;;;;;;;;14.80;74.80;;;;;;4977663;28;19913;-78
2024/02/29 08:59:15;;;;;;;;;;;14.90;74.10;;;;;;4976494;28;19906;-77
2024/02/29 09:01:41;;;;;;;;;;;14.90;74.10;;;;;;4994892;28;19914;-77
2024/02/29 09:04:07;;;;;;;;;;;14.90;74.50;;;;;;4994224;28;19914;-77
2024/02/29 09:06:32;;;;;;;;;;;15.10;74.30;;;;;;4988930;28;19941;-78
2024/02/29 09:08:58;;;;;;;;;;;15.00;74.60;;;;;;4974968;28;19912;-79
2024/02/29 09:11:24;;;;;;;;;;;15.10;74.00;;;;;;4978368;28;19910;-76
2024/02/29 09:13:49;;;;;;;;;;;15.10;74.10;;;;;;4996291;28;19925;-78
2024/02/29 09:16:16;;;;;;;;;;;14.80;72.40;;;;;;4994011;28;19914;-78
2024/02/29 09:18:41;;;;;;;;;;;15.20;72.30;;;;;;4980000;28;19906;-77
2024/02/29 09:21:07;;;;;;;;;;;15.20;72.90;;;;;;4975606;28;19913;-78
2024/02/29 09:23:32;;;;;;;;;;;15.50;71.70;;;;;;4979109;28;19908;-77
2024/02/29 09:25:58;;;;;;;;;;;15.00;71.60;;;;;;4994748;28;20281;-77
2024/02/29 09:28:24;;;;;;;;;;;15.50;72.10;;;;;;4974321;28;19913;-77
2024/02/29 09:30:49;;;;;;;;;;;15.50;71.20;;;;;;4994234;28;20005;-77
2024/02/29 09:33:15;;;;;;;;;;;15.50;71.60;;;;;;4976204;28;19957;-77
2024/02/29 09:35:40;;;;;;;;;;;15.90;71.00;;;;;;4978927;28;19913;-77
2024/02/29 09:38:06;;;;;;;;;;;16.10;70.10;;;;;;4978186;28;19906;-77
2024/02/29 09:40:31;;;;;;;;;;;16.20;70.10;;;;;;4990590;28;20259;-77
2024/02/29 09:42:58;;;;;;;;;;;16.40;68.90;;;;;;4992924;28;20348;-79
2024/02/29 09:45:24;;;;;;;;;;;16.50;68.60;;;;;;4991563;28;19925;-77
2024/02/29 09:47:50;;;;;;;;;;;16.70;67.70;;;;;;4976495;28;19981;-78
2024/02/29 09:50:15;;;;;;;;;;;16.60;67.70;;;;;;4994217;28;19905;-78
2024/02/29 09:52:42;;;;;;;;;;;16.70;67.20;;;;;;4972952;28;19981;-78
2024/02/29 09:55:18;;;;;;;;;;;16.80;66.70;;;;;;4979554;28;19890;-78
2024/02/29 09:57:44;;;;;;;;;;;16.70;67.20;;;;;;4995858;28;19897;-77
2024/02/29 10:00:10;;;;;;;;;;;16.80;66.90;;;;;;4962362;28;19914;-77
2024/02/29 10:02:37;;;;;;;;;;;16.90;66.90;;;;;;4976026;28;19921;-78
2024/02/29 10:05:03;;;;;;;;;;;17.00;65.70;;;;;;4974928;29;19899;-78
2024/02/29 10:07:30;;;;;;;;;;;17.10;66.70;;;;;;4973991;29;19890;-78
2024/02/29 10:09:56;;;;;;;;;;;17.20;65.20;;;;;;4974185;29;19910;-77
2024/02/29 10:12:22;;;;;;;;;;;17.20;65.80;;;;;;4974109;29;19906;-77
2024/02/29 10:14:57;;;;;;;;;;;17.20;64.90;;;;;;4974332;29;19906;-78
2024/02/29 10:17:24;;;;;;;;;;;17.20;65.60;;;;;;4970955;29;19922;-78
2024/02/29 10:19:52;;;;;;;;;;;17.60;64.20;;;;;;4972429;29;19906;-82
2024/02/29 10:22:21;;;;;;;;;;;17.60;64.30;;;;;;4963860;28;19906;-82
2024/02/29 10:24:50;;;;;;;;;;;17.70;63.30;;;;;;4965632;29;19910;-78
2024/02/29 10:27:17;;;;;;;;;;;17.60;64.10;;;;;;4959828;28;19914;-84
2024/02/29 10:29:42;;;;;;;;;;;17.50;64.00;;;;;;4960326;29;19911;-81
2024/02/29 10:32:08;;;;;;;;;;;17.60;64.30;;;;;;4956086;29;20033;-85
2024/02/29 10:34:35;;;;;;;;;;;17.70;64.00;;;;;;4957750;29;19914;-83
2024/02/29 10:37:01;;;;;;;;;;;17.80;62.60;;;;;;4962007;29;19907;-80
2024/02/29 10:39:27;;;;;;;;;;;17.80;61.80;;;;;;4972514;29;19891;-86
2024/02/29 10:41:55;;;;;;;;;;;17.70;60.80;;;;;;4975147;28;19914;-83
2024/02/29 10:44:21;;;;;;;;;;;17.60;61.70;;;;;;4973502;28;19918;-82
2024/02/29 10:46:50;;;;;;;;;;;17.50;62.90;;;;;;4972044;29;19937;-80
2024/02/29 10:49:23;;;;;;;;;;;17.40;63.30;;;;;;4967210;29;20729;-79
2024/02/29 10:52:00;;;;;;;;;;;17.50;63.30;;;;;;4965269;29;19957;-81
2024/02/29 10:54:29;;;;;;;;;;;17.40;63.00;;;;;;4967309;29;19907;-80
2024/02/29 10:56:55;;;;;;;;;;;17.40;62.40;;;;;;4969431;29;20386;-79
2024/02/29 10:59:22;;;;;;;;;;;17.40;62.10;;;;;;4970507;28;19997;-78
2024/02/29 11:01:48;;;;;;;;;;;17.20;63.30;;;;;;4976985;28;20028;-78
2024/02/29 11:04:16;;;;;;;;;;;17.20;63.00;;;;;;4993941;28;19914;-79
2024/02/29 11:06:47;;;;;;;;;;;17.10;63.80;;;;;;4999221;28;19906;-78
2024/02/29 11:09:14;;;;;;;;;;;17.10;65.20;;;;;;4998971;28;19965;-80
2024/02/29 11:11:39;;;;;;;;;;;17.00;65.40;;;;;;4981845;28;19898;-79
2024/02/29 11:14:05;;;;;;;;;;;17.10;65.30;;;;;;4980918;28;19906;-79
2024/02/29 11:16:51;;;;;;;;;;;17.20;64.80;;;;;;4983314;28;19890;-78
2024/02/29 11:19:17;;;;;;;;;;;17.30;64.80;;;;;;4977789;28;19918;-78
2024/02/29 11:21:43;;;;;;;;;;;17.30;65.40;;;;;;4981322;28;19916;-78
2024/02/29 11:24:14;;;;;;;;;;;17.40;65.50;;;;;;4980884;28;20383;-78
2024/02/29 11:26:41;;;;;;;;;;;17.40;65.60;;;;;;4977082;28;20260;-78
2024/02/29 11:29:25;;;;;;;;;;;17.40;65.20;;;;;;4975398;28;19945;-77
2024/02/29 11:31:53;;;;;;;;;;;17.60;65.00;;;;;;4994417;28;19890;-77
2024/02/29 11:34:20;;;;;;;;;;;17.70;64.90;;;;;;4997844;28;19906;-78
2024/02/29 11:36:49;;;;;;;;;;;17.60;64.10;;;;;;4980286;28;19917;-78
2024/02/29 11:39:17;;;;;;;;;;;17.60;64.30;;;;;;4977955;28;19997;-78
2024/02/29 11:41:43;;;;;;;;;;;17.30;65.60;;;;;;4977490;28;19917;-78
2024/02/29 11:44:08;;;;;;;;;;;17.20;66.20;;;;;;4978444;28;20356;-79
2024/02/29 11:46:34;;;;;;;;;;;17.00;67.40;;;;;;4979366;28;19941;-79
2024/02/29 11:48:59;;;;;;;;;;;17.10;67.80;;;;;;4976054;28;19906;-77
2024/02/29 11:51:25;;;;;;;;;;;17.10;68.80;;;;;;4975429;28;19913;-79
2024/02/29 11:53:51;;;;;;;;;;;17.00;68.40;;;;;;4975338;28;19906;-82
2024/02/29 11:56:17;;;;;;;;;;;17.00;68.20;;;;;;4994723;28;19890;-78
2024/02/29 11:58:43;;;;;;;;;;;17.00;68.50;;;;;;4976642;28;20004;-78
2024/02/29 12:01:12;;;;;;;;;;;16.90;68.20;;;;;;4997307;28;19890;-78
2024/02/29 12:03:37;;;;;;;;;;;17.00;68.50;;;;;;4972686;28;19918;-78
2024/02/29 12:06:04;;;;;;;;;;;17.00;68.10;;;;;;4980069;28;19906;-77
2024/02/29 12:08:30;;;;;;;;;;;17.00;68.00;;;;;;4996381;28;19914;-78
2024/02/29 12:10:58;;;;;;;;;;;17.00;68.90;;;;;;4998496;28;19906;-79
2024/02/29 12:13:23;;;;;;;;;;;17.10;68.30;;;;;;4980985;28;19910;-80
2024/02/29 12:15:49;;;;;;;;;;;16.90;68.10;;;;;;4994519;28;19929;-78
2024/02/29 12:18:15;;;;;;;;;;;16.90;68.00;;;;;;4980001;28;19961;-78
2024/02/29 12:20:41;;;;;;;;;;;16.90;69.10;;;;;;4979620;28;19909;-77
2024/02/29 12:23:08;;;;;;;;;;;17.10;69.30;;;;;;4995418;28;19906;-77
2024/02/29 12:25:34;;;;;;;;;;;17.00;70.10;;;;;;4993271;28;19914;-77
2024/02/29 12:28:00;;;;;;;;;;;17.20;70.00;;;;;;4978969;28;19929;-78
2024/02/29 12:30:25;;;;;;;;;;;17.20;70.60;;;;;;4978391;28;19929;-78
2024/02/29 12:32:54;;;;;;;;;;;17.20;70.80;;;;;;4977901;28;19906;-78
2024/02/29 12:35:19;;;;;;;;;;;17.30;69.60;;;;;;4993483;28;20694;-78
2024/02/29 12:37:45;;;;;;;;;;;17.40;68.40;;;;;;4992335;28;19910;-78
2024/02/29 12:40:11;;;;;;;;;;;17.20;69.60;;;;;;4998106;28;20004;-79
2024/02/29 12:42:36;;;;;;;;;;;17.30;69.20;;;;;;4998268;28;19906;-78
2024/02/29 12:45:02;;;;;;;;;;;17.30;69.30;;;;;;4975831;28;19924;-78
2024/02/29 12:47:28;;;;;;;;;;;17.10;70.10;;;;;;4979662;28;19953;-78
2024/02/29 12:49:54;;;;;;;;;;;17.10;70.40;;;;;;4996938;28;19910;-78
2024/02/29 12:52:20;;;;;;;;;;;17.10;71.40;;;;;;4980718;28;19932;-78
2024/02/29 12:54:45;;;;;;;;;;;17.00;72.00;;;;;;4977009;28;20228;-78
2024/02/29 12:57:11;;;;;;;;;;;16.90;72.00;;;;;;4990880;28;20494;-77
2024/02/29 12:59:36;;;;;;;;;;;17.00;71.90;;;;;;4979307;28;19928;-78
2024/02/29 13:02:02;;;;;;;;;;;17.10;71.40;;;;;;4976888;28;19945;-78
2024/02/29 13:04:28;;;;;;;;;;;17.20;70.50;;;;;;4977488;28;19894;-78
2024/02/29 13:06:53;;;;;;;;;;;17.30;69.20;;;;;;4996953;28;19981;-79
2024/02/29 13:09:22;;;;;;;;;;;17.20;69.40;;;;;;4997003;28;20000;-78
2024/02/29 13:11:48;;;;;;;;;;;17.10;70.70;;;;;;4974524;28;19890;-79
2024/02/29 13:14:14;;;;;;;;;;;17.20;70.30;;;;;;4975752;28;19906;-78
2024/02/29 13:16:39;;;;;;;;;;;17.10;69.90;;;;;;4978561;28;19917;-79
2024/02/29 13:19:06;;;;;;;;;;;17.30;69.10;;;;;;4996534;28;19909;-79
2024/02/29 13:21:32;;;;;;;;;;;17.10;69.50;;;;;;4974482;28;19910;-78
2024/02/29 13:23:57;;;;;;;;;;;17.00;69.90;;;;;;4979484;28;19917;-79
2024/02/29 13:26:23;;;;;;;;;;;17.00;69.60;;;;;;4979576;28;19949;-79
2024/02/29 13:28:48;;;;;;;;;;;17.00;69.10;;;;;;4995102;28;19952;-78
2024/02/29 13:31:14;;;;;;;;;;;16.90;69.60;;;;;;4975721;28;19977;-80
2024/02/29 13:33:40;;;;;;;;;;;16.90;69.80;;;;;;4992931;28;19941;-80
2024/02/29 13:36:06;;;;;;;;;;;16.90;69.90;;;;;;4972824;28;20355;-82
2024/02/29 13:38:38;;;;;;;;;;;16.90;70.10;;;;;;4985766;28;19914;-81
2024/02/29 13:41:04;;;;;;;;;;;16.90;69.80;;;;;;4970072;28;19941;-83
2024/02/29 13:43:30;;;;;;;;;;;16.90;70.10;;;;;;4969595;28;19906;-81
2024/02/29 13:45:56;;;;;;;;;;;16.90;70.10;;;;;;4973177;28;19921;-79
2024/02/29 13:48:22;;;;;;;;;;;17.00;68.30;;;;;;4975737;28;19902;-84
2024/02/29 13:50:48;;;;;;;;;;;16.90;68.60;;;;;;4993934;28;20466;-87
2024/02/29 13:53:23;;;;;;;;;;;16.90;68.20;;;;;;4978487;28;19905;-78
2024/02/29 13:55:54;;;;;;;;;;;16.90;67.80;;;;;;4978432;28;19913;-78
2024/02/29 13:58:19;;;;;;;;;;;16.90;66.20;;;;;;4994389;28;19934;-83
2024/02/29 14:00:45;;;;;;;;;;;16.90;65.20;;;;;;4975290;28;19906;-79
2024/02/29 14:03:11;;;;;;;;;;;16.90;64.10;;;;;;4978699;28;19921;-80
2024/02/29 14:05:36;;;;;;;;;;;16.70;64.40;;;;;;4976498;28;19937;-78
2024/02/29 14:08:10;;;;;;;;;;;16.70;64.70;;;;;;4977195;28;19941;-78
2024/02/29 14:10:36;;;;;;;;;;;16.70;64.50;;;;;;4992874;28;19906;-78
2024/02/29 14:13:02;;;;;;;;;;;16.80;64.90;;;;;;4974578;28;19910;-78
2024/02/29 14:15:27;;;;;;;;;;;16.70;65.50;;;;;;4995421;28;19906;-78
2024/02/29 14:18:16;;;;;;;;;;;16.60;66.00;;;;;;4978605;28;19890;-78